sensor_id;sensor_type;location;lat;lon;timestamp;temperature;humidity
29571;DHT22;16814;52.118;11.436;2022-09-25T00:00:29;12.30;99.90
29571;DHT22;16814;52.118;11.436;2022-09-25T00:02:54;12.30;99.90
29571;DHT22;16814;52.118;11.436;2022-09-25T00:05:22;12.30;99.90
29571;DHT22;16814;52.118;11.436;2022-09-25T00:07:48;12.30;99.90
29571;DHT22;16814;52.118;11.436;2022-09-25T00:10:13;12.20;99.90
29571;DHT22;16814;52.118;11.436;2022-09-25T00:12:39;12.20;99.90
29571;DHT22;16814;52.118;11.436;2022-09-25T00:15:06;12.20;99.90
29571;DHT22;16814;52.118;11.436;2022-09-25T00:17:32;12.20;99.90
29571;DHT22;16814;52.118;11.436;2022-09-25T00:19:58;12.10;99.90
29571;DHT22;16814;52.118;11.436;2022-09-25T00:22:24;12.00;99.90
29571;DHT22;16814;52.118;11.436;2022-09-25T00:24:50;12.00;99.90
29571;DHT22;16814;52.118;11.436;2022-09-25T00:27:16;11.90;99.90
29571;DHT22;16814;52.118;11.436;2022-09-25T00:29:42;12.00;99.90
29571;DHT22;16814;52.118;11.436;2022-09-25T00:32:09;12.00;99.90
29571;DHT22;16814;52.118;11.436;2022-09-25T00:34:36;12.00;99.90
29571;DHT22;16814;52.118;11.436;2022-09-25T00:37:02;12.10;99.90
29571;DHT22;16814;52.118;11.436;2022-09-25T00:39:28;12.20;99.90
29571;DHT22;16814;52.118;11.436;2022-09-25T00:41:54;12.30;99.90
29571;DHT22;16814;52.118;11.436;2022-09-25T00:44:49;12.30;99.90
29571;DHT22;16814;52.118;11.436;2022-09-25T00:47:21;12.40;99.90
29571;DHT22;16814;52.118;11.436;2022-09-25T00:49:49;12.50;99.90
29571;DHT22;16814;52.118;11.436;2022-09-25T00:52:15;12.50;99.90
29571;DHT22;16814;52.118;11.436;2022-09-25T00:54:45;12.50;99.90
29571;DHT22;16814;52.118;11.436;2022-09-25T00:57:16;12.50;99.90
29571;DHT22;16814;52.118;11.436;2022-09-25T00:59:46;12.50;99.90
29571;DHT22;16814;52.118;11.436;2022-09-25T01:02:33;12.50;99.90
29571;DHT22;16814;52.118;11.436;2022-09-25T01:05:04;12.50;99.90
29571;DHT22;16814;52.118;11.436;2022-09-25T01:07:33;12.60;99.90
29571;DHT22;16814;52.118;11.436;2022-09-25T01:10:00;12.70;99.90
29571;DHT22;16814;52.118;11.436;2022-09-25T01:12:27;12.60;99.90
29571;DHT22;16814;52.118;11.436;2022-09-25T01:14:53;12.60;99.90
29571;DHT22;16814;52.118;11.436;2022-09-25T01:17:31;12.60;99.90
29571;DHT22;16814;52.118;11.436;2022-09-25T01:20:31;12.50;99.90
29571;DHT22;16814;52.118;11.436;2022-09-25T01:26:12;12.60;99.90
29571;DHT22;16814;52.118;11.436;2022-09-25T01:34:04;12.60;99.90
29571;DHT22;16814;52.118;11.436;2022-09-25T01:36:35;12.30;99.90
29571;DHT22;16814;52.118;11.436;2022-09-25T01:39:10;12.30;99.90
29571;DHT22;16814;52.118;11.436;2022-09-25T01:42:01;12.30;99.90
29571;DHT22;16814;52.118;11.436;2022-09-25T01:44:33;12.30;99.90
29571;DHT22;16814;52.118;11.436;2022-09-25T01:47:16;12.30;99.90
29571;DHT22;16814;52.118;11.436;2022-09-25T01:49:54;12.30;99.90
29571;DHT22;16814;52.118;11.436;2022-09-25T01:52:24;12.30;99.90
29571;DHT22;16814;52.118;11.436;2022-09-25T01:54:55;12.30;99.90
29571;DHT22;16814;52.118;11.436;2022-09-25T01:57:29;12.10;99.90
29571;DHT22;16814;52.118;11.436;2022-09-25T02:00:14;12.00;99.90
29571;DHT22;16814;52.118;11.436;2022-09-25T02:02:46;12.10;99.90
29571;DHT22;16814;52.118;11.436;2022-09-25T02:05:39;12.00;99.90
29571;DHT22;16814;52.118;11.436;2022-09-25T02:08:29;12.00;99.90
29571;DHT22;16814;52.118;11.436;2022-09-25T02:11:00;12.00;99.90
29571;DHT22;16814;52.118;11.436;2022-09-25T02:13:34;12.00;99.90
29571;DHT22;16814;52.118;11.436;2022-09-25T02:16:06;11.90;99.90
29571;DHT22;16814;52.118;11.436;2022-09-25T02:18:33;11.90;99.90
29571;DHT22;16814;52.118;11.436;2022-09-25T02:24:25;11.80;99.90
29571;DHT22;16814;52.118;11.436;2022-09-25T02:26:55;11.70;99.90
29571;DHT22;16814;52.118;11.436;2022-09-25T02:29:20;11.80;99.90
29571;DHT22;16814;52.118;11.436;2022-09-25T02:31:54;11.80;99.90
29571;DHT22;16814;52.118;11.436;2022-09-25T02:34:21;11.90;99.90
29571;DHT22;16814;52.118;11.436;2022-09-25T02:36:47;11.90;99.90
29571;DHT22;16814;52.118;11.436;2022-09-25T02:39:14;12.00;99.90
29571;DHT22;16814;52.118;11.436;2022-09-25T02:45:02;12.00;99.90
29571;DHT22;16814;52.118;11.436;2022-09-25T02:47:38;12.10;99.90
29571;DHT22;16814;52.118;11.436;2022-09-25T02:50:42;12.20;99.90
29571;DHT22;16814;52.118;11.436;2022-09-25T02:56:04;12.20;99.90
29571;DHT22;16814;52.118;11.436;2022-09-25T02:58:48;12.10;99.90
29571;DHT22;16814;52.118;11.436;2022-09-25T03:01:17;12.30;99.90
29571;DHT22;16814;52.118;11.436;2022-09-25T03:03:47;12.40;99.90
29571;DHT22;16814;52.118;11.436;2022-09-25T03:06:14;12.30;99.90
29571;DHT22;16814;52.118;11.436;2022-09-25T03:08:45;12.30;99.90
29571;DHT22;16814;52.118;11.436;2022-09-25T03:11:16;12.30;99.90
29571;DHT22;16814;52.118;11.436;2022-09-25T03:13:42;12.30;99.90
29571;DHT22;16814;52.118;11.436;2022-09-25T03:19:06;12.10;99.90
29571;DHT22;16814;52.118;11.436;2022-09-25T03:21:32;11.90;99.90
29571;DHT22;16814;52.118;11.436;2022-09-25T03:23:59;12.00;99.90
29571;DHT22;16814;52.118;11.436;2022-09-25T03:26:25;12.20;99.90
29571;DHT22;16814;52.118;11.436;2022-09-25T03:28:53;12.30;99.90
29571;DHT22;16814;52.118;11.436;2022-09-25T03:31:19;12.40;99.90
29571;DHT22;16814;52.118;11.436;2022-09-25T03:33:45;12.40;99.90
29571;DHT22;16814;52.118;11.436;2022-09-25T03:36:17;12.30;99.90
29571;DHT22;16814;52.118;11.436;2022-09-25T03:38:44;12.30;99.90
29571;DHT22;16814;52.118;11.436;2022-09-25T03:41:11;12.20;99.90
29571;DHT22;16814;52.118;11.436;2022-09-25T03:43:39;12.10;99.90
29571;DHT22;16814;52.118;11.436;2022-09-25T03:46:07;12.20;99.90
29571;DHT22;16814;52.118;11.436;2022-09-25T03:48:34;12.20;99.90
29571;DHT22;16814;52.118;11.436;2022-09-25T03:51:00;12.10;99.90
29571;DHT22;16814;52.118;11.436;2022-09-25T03:53:26;12.10;99.90
29571;DHT22;16814;52.118;11.436;2022-09-25T03:55:52;12.10;99.90
29571;DHT22;16814;52.118;11.436;2022-09-25T03:58:18;12.10;99.90
29571;DHT22;16814;52.118;11.436;2022-09-25T04:00:45;12.10;99.90
29571;DHT22;16814;52.118;11.436;2022-09-25T04:03:14;12.20;99.90
29571;DHT22;16814;52.118;11.436;2022-09-25T04:05:41;12.20;99.90
29571;DHT22;16814;52.118;11.436;2022-09-25T04:08:08;12.20;99.90
29571;DHT22;16814;52.118;11.436;2022-09-25T04:10:34;12.20;99.90
29571;DHT22;16814;52.118;11.436;2022-09-25T04:13:04;12.20;99.90
29571;DHT22;16814;52.118;11.436;2022-09-25T04:15:30;12.20;99.90
29571;DHT22;16814;52.118;11.436;2022-09-25T04:17:56;12.40;99.90
29571;DHT22;16814;52.118;11.436;2022-09-25T04:20:22;12.50;99.90
29571;DHT22;16814;52.118;11.436;2022-09-25T04:22:48;12.40;99.90
29571;DHT22;16814;52.118;11.436;2022-09-25T04:25:13;12.40;99.90
29571;DHT22;16814;52.118;11.436;2022-09-25T04:27:39;12.50;99.90
29571;DHT22;16814;52.118;11.436;2022-09-25T04:30:05;12.50;99.90
29571;DHT22;16814;52.118;11.436;2022-09-25T04:32:32;12.60;99.90
29571;DHT22;16814;52.118;11.436;2022-09-25T04:35:17;12.60;99.90
29571;DHT22;16814;52.118;11.436;2022-09-25T04:37:42;12.50;99.90
29571;DHT22;16814;52.118;11.436;2022-09-25T04:40:08;12.50;99.90
29571;DHT22;16814;52.118;11.436;2022-09-25T04:42:34;12.40;99.90
29571;DHT22;16814;52.118;11.436;2022-09-25T04:44:59;12.40;99.90
29571;DHT22;16814;52.118;11.436;2022-09-25T04:47:27;12.30;99.90
29571;DHT22;16814;52.118;11.436;2022-09-25T04:49:56;12.30;99.90
29571;DHT22;16814;52.118;11.436;2022-09-25T04:52:21;12.30;99.90
29571;DHT22;16814;52.118;11.436;2022-09-25T04:54:47;12.40;99.90
29571;DHT22;16814;52.118;11.436;2022-09-25T04:57:18;12.40;99.90
29571;DHT22;16814;52.118;11.436;2022-09-25T04:59:45;12.40;99.90
29571;DHT22;16814;52.118;11.436;2022-09-25T05:02:12;12.40;99.90
29571;DHT22;16814;52.118;11.436;2022-09-25T05:04:38;12.40;99.90
29571;DHT22;16814;52.118;11.436;2022-09-25T05:07:04;12.40;99.90
29571;DHT22;16814;52.118;11.436;2022-09-25T05:09:30;12.40;99.90
29571;DHT22;16814;52.118;11.436;2022-09-25T05:11:56;12.40;99.90
29571;DHT22;16814;52.118;11.436;2022-09-25T05:14:22;12.30;99.90
29571;DHT22;16814;52.118;11.436;2022-09-25T05:16:47;12.30;99.90
29571;DHT22;16814;52.118;11.436;2022-09-25T05:19:13;12.30;99.90
29571;DHT22;16814;52.118;11.436;2022-09-25T05:21:39;12.20;99.90
29571;DHT22;16814;52.118;11.436;2022-09-25T05:24:05;12.20;99.90
29571;DHT22;16814;52.118;11.436;2022-09-25T05:26:33;12.20;99.90
29571;DHT22;16814;52.118;11.436;2022-09-25T05:28:59;12.20;99.90
29571;DHT22;16814;52.118;11.436;2022-09-25T05:31:25;12.10;99.90
29571;DHT22;16814;52.118;11.436;2022-09-25T05:33:51;12.10;99.90
29571;DHT22;16814;52.118;11.436;2022-09-25T05:36:18;12.10;99.90
29571;DHT22;16814;52.118;11.436;2022-09-25T05:38:44;12.10;99.90
29571;DHT22;16814;52.118;11.436;2022-09-25T05:41:10;12.10;99.90
29571;DHT22;16814;52.118;11.436;2022-09-25T05:43:41;12.10;99.90
29571;DHT22;16814;52.118;11.436;2022-09-25T05:46:07;12.10;99.90
29571;DHT22;16814;52.118;11.436;2022-09-25T05:48:33;12.20;99.90
29571;DHT22;16814;52.118;11.436;2022-09-25T05:50:59;12.10;99.90
29571;DHT22;16814;52.118;11.436;2022-09-25T05:53:26;12.20;99.90
29571;DHT22;16814;52.118;11.436;2022-09-25T05:55:53;12.20;99.90
29571;DHT22;16814;52.118;11.436;2022-09-25T05:58:20;12.30;99.90
29571;DHT22;16814;52.118;11.436;2022-09-25T06:00:49;12.20;99.90
29571;DHT22;16814;52.118;11.436;2022-09-25T06:03:15;12.30;99.90
29571;DHT22;16814;52.118;11.436;2022-09-25T06:05:41;12.30;99.90
29571;DHT22;16814;52.118;11.436;2022-09-25T06:08:10;12.30;99.90
29571;DHT22;16814;52.118;11.436;2022-09-25T06:10:36;12.40;99.90
29571;DHT22;16814;52.118;11.436;2022-09-25T06:13:02;12.40;99.90
29571;DHT22;16814;52.118;11.436;2022-09-25T06:15:36;12.50;99.90
29571;DHT22;16814;52.118;11.436;2022-09-25T06:18:06;12.50;99.90
29571;DHT22;16814;52.118;11.436;2022-09-25T06:20:32;12.60;99.90
29571;DHT22;16814;52.118;11.436;2022-09-25T06:22:58;12.70;99.90
29571;DHT22;16814;52.118;11.436;2022-09-25T06:25:27;12.70;99.90
29571;DHT22;16814;52.118;11.436;2022-09-25T06:27:53;12.70;99.90
29571;DHT22;16814;52.118;11.436;2022-09-25T06:30:20;12.80;99.90
29571;DHT22;16814;52.118;11.436;2022-09-25T06:32:46;12.90;99.90
29571;DHT22;16814;52.118;11.436;2022-09-25T06:35:12;13.10;99.90
29571;DHT22;16814;52.118;11.436;2022-09-25T06:37:37;13.20;99.90
29571;DHT22;16814;52.118;11.436;2022-09-25T06:40:03;13.40;99.90
29571;DHT22;16814;52.118;11.436;2022-09-25T06:42:29;13.40;99.90
29571;DHT22;16814;52.118;11.436;2022-09-25T06:44:54;13.60;99.90
29571;DHT22;16814;52.118;11.436;2022-09-25T06:47:20;14.00;99.90
29571;DHT22;16814;52.118;11.436;2022-09-25T06:49:46;14.40;99.90
29571;DHT22;16814;52.118;11.436;2022-09-25T06:52:11;14.40;99.90
29571;DHT22;16814;52.118;11.436;2022-09-25T06:54:37;14.20;99.90
29571;DHT22;16814;52.118;11.436;2022-09-25T06:57:02;14.00;99.90
29571;DHT22;16814;52.118;11.436;2022-09-25T06:59:29;13.80;99.90
29571;DHT22;16814;52.118;11.436;2022-09-25T07:01:55;13.70;99.90
29571;DHT22;16814;52.118;11.436;2022-09-25T07:04:40;13.60;99.90
29571;DHT22;16814;52.118;11.436;2022-09-25T07:07:06;13.50;99.90
29571;DHT22;16814;52.118;11.436;2022-09-25T07:09:32;13.40;99.90
29571;DHT22;16814;52.118;11.436;2022-09-25T07:11:58;13.40;99.90
29571;DHT22;16814;52.118;11.436;2022-09-25T07:14:23;13.40;99.90
29571;DHT22;16814;52.118;11.436;2022-09-25T07:16:50;13.40;99.90
29571;DHT22;16814;52.118;11.436;2022-09-25T07:19:16;13.40;99.90
29571;DHT22;16814;52.118;11.436;2022-09-25T07:21:41;13.40;99.90
29571;DHT22;16814;52.118;11.436;2022-09-25T07:24:08;13.60;99.90
29571;DHT22;16814;52.118;11.436;2022-09-25T07:26:33;13.70;99.90
29571;DHT22;16814;52.118;11.436;2022-09-25T07:29:02;14.10;99.90
29571;DHT22;16814;52.118;11.436;2022-09-25T07:31:29;14.40;99.90
29571;DHT22;16814;52.118;11.436;2022-09-25T07:33:56;14.40;99.90
29571;DHT22;16814;52.118;11.436;2022-09-25T07:36:23;14.40;99.90
29571;DHT22;16814;52.118;11.436;2022-09-25T07:38:49;14.30;99.90
29571;DHT22;16814;52.118;11.436;2022-09-25T07:41:15;14.30;99.90
29571;DHT22;16814;52.118;11.436;2022-09-25T07:43:43;14.20;99.90
29571;DHT22;16814;52.118;11.436;2022-09-25T07:46:09;14.30;99.90
29571;DHT22;16814;52.118;11.436;2022-09-25T07:48:35;14.40;99.90
29571;DHT22;16814;52.118;11.436;2022-09-25T07:51:02;14.50;99.90
29571;DHT22;16814;52.118;11.436;2022-09-25T07:53:29;14.80;99.90
29571;DHT22;16814;52.118;11.436;2022-09-25T07:55:59;15.00;99.90
29571;DHT22;16814;52.118;11.436;2022-09-25T07:58:25;15.10;99.90
29571;DHT22;16814;52.118;11.436;2022-09-25T08:00:58;15.10;99.90
29571;DHT22;16814;52.118;11.436;2022-09-25T08:03:25;14.70;99.90
29571;DHT22;16814;52.118;11.436;2022-09-25T08:06:07;14.80;99.90
29571;DHT22;16814;52.118;11.436;2022-09-25T08:08:38;14.70;99.90
29571;DHT22;16814;52.118;11.436;2022-09-25T08:11:07;14.80;99.90
29571;DHT22;16814;52.118;11.436;2022-09-25T08:13:34;14.50;99.90
29571;DHT22;16814;52.118;11.436;2022-09-25T08:16:04;14.50;99.90
29571;DHT22;16814;52.118;11.436;2022-09-25T08:18:31;14.50;99.90
29571;DHT22;16814;52.118;11.436;2022-09-25T08:21:03;14.50;99.90
29571;DHT22;16814;52.118;11.436;2022-09-25T08:23:29;14.40;99.90
29571;DHT22;16814;52.118;11.436;2022-09-25T08:25:55;14.40;99.90
29571;DHT22;16814;52.118;11.436;2022-09-25T08:28:21;14.40;99.90
29571;DHT22;16814;52.118;11.436;2022-09-25T08:30:47;14.40;99.90
29571;DHT22;16814;52.118;11.436;2022-09-25T08:33:13;14.50;99.90
29571;DHT22;16814;52.118;11.436;2022-09-25T08:35:39;14.40;99.90
29571;DHT22;16814;52.118;11.436;2022-09-25T08:38:09;14.40;99.90
29571;DHT22;16814;52.118;11.436;2022-09-25T08:40:41;14.30;99.90
29571;DHT22;16814;52.118;11.436;2022-09-25T08:43:17;14.30;99.90
29571;DHT22;16814;52.118;11.436;2022-09-25T08:45:44;14.30;99.90
29571;DHT22;16814;52.118;11.436;2022-09-25T08:48:53;14.40;99.90
29571;DHT22;16814;52.118;11.436;2022-09-25T08:51:37;14.30;99.90
29571;DHT22;16814;52.118;11.436;2022-09-25T08:54:04;14.30;99.90
29571;DHT22;16814;52.118;11.436;2022-09-25T08:56:31;14.30;99.90
29571;DHT22;16814;52.118;11.436;2022-09-25T08:59:27;14.30;99.90
29571;DHT22;16814;52.118;11.436;2022-09-25T09:02:16;14.30;99.90
29571;DHT22;16814;52.118;11.436;2022-09-25T09:04:53;14.30;99.90
29571;DHT22;16814;52.118;11.436;2022-09-25T09:07:24;14.30;99.90
29571;DHT22;16814;52.118;11.436;2022-09-25T09:12:44;14.20;99.90
29571;DHT22;16814;52.118;11.436;2022-09-25T09:17:53;14.30;99.90
29571;DHT22;16814;52.118;11.436;2022-09-25T09:20:26;14.50;99.90
29571;DHT22;16814;52.118;11.436;2022-09-25T09:22:54;14.40;99.90
29571;DHT22;16814;52.118;11.436;2022-09-25T09:31:38;14.60;99.90
29571;DHT22;16814;52.118;11.436;2022-09-25T09:34:26;14.60;99.90
29571;DHT22;16814;52.118;11.436;2022-09-25T09:37:19;14.60;99.90
29571;DHT22;16814;52.118;11.436;2022-09-25T09:40:02;14.80;99.90
29571;DHT22;16814;52.118;11.436;2022-09-25T09:42:58;14.60;99.90
29571;DHT22;16814;52.118;11.436;2022-09-25T09:50:51;14.80;99.90
29571;DHT22;16814;52.118;11.436;2022-09-25T09:56:15;14.90;99.90
29571;DHT22;16814;52.118;11.436;2022-09-25T09:58:50;15.00;99.90
29571;DHT22;16814;52.118;11.436;2022-09-25T10:01:20;15.00;99.90
29571;DHT22;16814;52.118;11.436;2022-09-25T10:04:03;15.00;99.90
29571;DHT22;16814;52.118;11.436;2022-09-25T10:06:33;15.10;99.90
29571;DHT22;16814;52.118;11.436;2022-09-25T10:09:00;15.20;99.90
29571;DHT22;16814;52.118;11.436;2022-09-25T10:11:25;15.10;99.90
29571;DHT22;16814;52.118;11.436;2022-09-25T10:13:57;15.00;99.90
29571;DHT22;16814;52.118;11.436;2022-09-25T10:16:25;15.00;99.90
29571;DHT22;16814;52.118;11.436;2022-09-25T10:19:00;15.00;99.90
29571;DHT22;16814;52.118;11.436;2022-09-25T10:24:01;15.00;99.90
29571;DHT22;16814;52.118;11.436;2022-09-25T10:28:58;15.00;99.90
29571;DHT22;16814;52.118;11.436;2022-09-25T10:31:27;15.00;99.90
29571;DHT22;16814;52.118;11.436;2022-09-25T10:33:59;14.90;99.90
29571;DHT22;16814;52.118;11.436;2022-09-25T10:38:55;14.80;99.90
29571;DHT22;16814;52.118;11.436;2022-09-25T10:41:21;14.90;99.90
29571;DHT22;16814;52.118;11.436;2022-09-25T10:43:53;14.80;99.90
29571;DHT22;16814;52.118;11.436;2022-09-25T10:46:26;14.80;99.90
29571;DHT22;16814;52.118;11.436;2022-09-25T10:49:24;14.80;99.90
29571;DHT22;16814;52.118;11.436;2022-09-25T10:52:10;14.90;99.90
29571;DHT22;16814;52.118;11.436;2022-09-25T10:54:38;15.00;99.90
29571;DHT22;16814;52.118;11.436;2022-09-25T10:59:59;15.30;99.90
29571;DHT22;16814;52.118;11.436;2022-09-25T11:02:38;15.30;99.90
29571;DHT22;16814;52.118;11.436;2022-09-25T11:05:06;15.30;99.90
29571;DHT22;16814;52.118;11.436;2022-09-25T11:07:45;15.40;99.90
29571;DHT22;16814;52.118;11.436;2022-09-25T11:10:32;15.30;99.90
29571;DHT22;16814;52.118;11.436;2022-09-25T11:13:06;15.30;99.90
29571;DHT22;16814;52.118;11.436;2022-09-25T11:15:33;15.40;99.90
29571;DHT22;16814;52.118;11.436;2022-09-25T11:18:03;15.30;99.90
29571;DHT22;16814;52.118;11.436;2022-09-25T11:20:30;15.50;99.90
29571;DHT22;16814;52.118;11.436;2022-09-25T11:23:04;15.70;99.90
29571;DHT22;16814;52.118;11.436;2022-09-25T11:26:11;15.90;99.90
29571;DHT22;16814;52.118;11.436;2022-09-25T11:31:31;16.20;99.90
29571;DHT22;16814;52.118;11.436;2022-09-25T11:39:30;16.40;99.90
29571;DHT22;16814;52.118;11.436;2022-09-25T11:42:35;16.50;99.90
29571;DHT22;16814;52.118;11.436;2022-09-25T11:45:23;16.50;99.90
29571;DHT22;16814;52.118;11.436;2022-09-25T11:48:02;16.50;99.90
29571;DHT22;16814;52.118;11.436;2022-09-25T11:50:44;16.30;99.90
29571;DHT22;16814;52.118;11.436;2022-09-25T11:53:14;16.30;99.90
29571;DHT22;16814;52.118;11.436;2022-09-25T11:58:59;16.40;99.90
29571;DHT22;16814;52.118;11.436;2022-09-25T12:01:47;16.40;99.90
29571;DHT22;16814;52.118;11.436;2022-09-25T12:09:56;16.30;99.90
29571;DHT22;16814;52.118;11.436;2022-09-25T12:15:58;16.40;99.90
29571;DHT22;16814;52.118;11.436;2022-09-25T12:21:25;16.10;99.90
29571;DHT22;16814;52.118;11.436;2022-09-25T12:24:08;16.10;99.90
29571;DHT22;16814;52.118;11.436;2022-09-25T12:29:40;16.20;99.90
29571;DHT22;16814;52.118;11.436;2022-09-25T12:32:27;16.20;99.90
29571;DHT22;16814;52.118;11.436;2022-09-25T12:37:44;16.20;99.90
29571;DHT22;16814;52.118;11.436;2022-09-25T12:40:28;16.30;99.90
29571;DHT22;16814;52.118;11.436;2022-09-25T12:43:19;16.40;99.90
29571;DHT22;16814;52.118;11.436;2022-09-25T12:48:43;16.40;99.90
29571;DHT22;16814;52.118;11.436;2022-09-25T12:53:49;16.40;99.90
29571;DHT22;16814;52.118;11.436;2022-09-25T12:56:37;16.40;99.90
29571;DHT22;16814;52.118;11.436;2022-09-25T12:59:14;16.30;99.90
29571;DHT22;16814;52.118;11.436;2022-09-25T13:04:53;16.60;99.90
29571;DHT22;16814;52.118;11.436;2022-09-25T13:13:16;16.30;99.90
29571;DHT22;16814;52.118;11.436;2022-09-25T13:15:47;16.40;99.90
29571;DHT22;16814;52.118;11.436;2022-09-25T13:18:18;16.40;99.90
29571;DHT22;16814;52.118;11.436;2022-09-25T13:20:49;16.50;99.90
29571;DHT22;16814;52.118;11.436;2022-09-25T13:23:28;16.40;99.90
29571;DHT22;16814;52.118;11.436;2022-09-25T13:26:40;16.30;99.90
29571;DHT22;16814;52.118;11.436;2022-09-25T13:29:02;16.30;99.90
29571;DHT22;16814;52.118;11.436;2022-09-25T13:31:32;16.30;99.90
29571;DHT22;16814;52.118;11.436;2022-09-25T13:34:06;16.30;99.90
29571;DHT22;16814;52.118;11.436;2022-09-25T13:36:52;16.40;99.90
29571;DHT22;16814;52.118;11.436;2022-09-25T13:39:30;16.40;99.90
29571;DHT22;16814;52.118;11.436;2022-09-25T13:42:25;16.30;99.90
29571;DHT22;16814;52.118;11.436;2022-09-25T13:54:00;16.40;99.90
29571;DHT22;16814;52.118;11.436;2022-09-25T13:56:43;16.40;99.90
29571;DHT22;16814;52.118;11.436;2022-09-25T14:04:18;16.20;99.90
29571;DHT22;16814;52.118;11.436;2022-09-25T14:07:23;16.10;99.90
29571;DHT22;16814;52.118;11.436;2022-09-25T14:09:56;16.20;99.90
29571;DHT22;16814;52.118;11.436;2022-09-25T14:12:27;16.20;99.90
29571;DHT22;16814;52.118;11.436;2022-09-25T14:15:07;16.00;99.90
29571;DHT22;16814;52.118;11.436;2022-09-25T14:17:41;16.20;99.90
29571;DHT22;16814;52.118;11.436;2022-09-25T14:20:26;16.20;99.90
29571;DHT22;16814;52.118;11.436;2022-09-25T14:22:55;16.20;99.90
29571;DHT22;16814;52.118;11.436;2022-09-25T14:25:36;16.20;99.90
29571;DHT22;16814;52.118;11.436;2022-09-25T14:28:19;16.10;99.90
29571;DHT22;16814;52.118;11.436;2022-09-25T14:31:26;16.20;99.90
29571;DHT22;16814;52.118;11.436;2022-09-25T14:34:00;16.20;99.90
29571;DHT22;16814;52.118;11.436;2022-09-25T14:48:13;16.10;99.90
29571;DHT22;16814;52.118;11.436;2022-09-25T14:50:45;16.30;99.90
29571;DHT22;16814;52.118;11.436;2022-09-25T14:53:22;16.20;99.90
29571;DHT22;16814;52.118;11.436;2022-09-25T14:55:51;16.20;99.90
29571;DHT22;16814;52.118;11.436;2022-09-25T14:58:21;16.20;99.90
29571;DHT22;16814;52.118;11.436;2022-09-25T15:00:51;16.10;99.90
29571;DHT22;16814;52.118;11.436;2022-09-25T15:03:21;16.00;99.90
29571;DHT22;16814;52.118;11.436;2022-09-25T15:05:49;16.10;99.90
29571;DHT22;16814;52.118;11.436;2022-09-25T15:08:21;16.20;99.90
29571;DHT22;16814;52.118;11.436;2022-09-25T15:10:47;16.20;99.90
29571;DHT22;16814;52.118;11.436;2022-09-25T15:13:19;16.10;99.90
29571;DHT22;16814;52.118;11.436;2022-09-25T15:15:53;16.20;99.90
29571;DHT22;16814;52.118;11.436;2022-09-25T15:18:41;16.20;99.90
29571;DHT22;16814;52.118;11.436;2022-09-25T15:21:21;16.20;99.90
29571;DHT22;16814;52.118;11.436;2022-09-25T15:23:48;16.20;99.90
29571;DHT22;16814;52.118;11.436;2022-09-25T15:26:17;16.10;99.90
29571;DHT22;16814;52.118;11.436;2022-09-25T15:28:43;15.90;99.90
29571;DHT22;16814;52.118;11.436;2022-09-25T15:31:09;15.80;99.90
29571;DHT22;16814;52.118;11.436;2022-09-25T15:33:37;15.70;99.90
29571;DHT22;16814;52.118;11.436;2022-09-25T15:36:18;15.60;99.90
29571;DHT22;16814;52.118;11.436;2022-09-25T15:38:59;15.60;99.90
29571;DHT22;16814;52.118;11.436;2022-09-25T15:41:25;15.70;99.90
29571;DHT22;16814;52.118;11.436;2022-09-25T15:44:10;15.70;99.90
29571;DHT22;16814;52.118;11.436;2022-09-25T15:46:38;15.70;99.90
29571;DHT22;16814;52.118;11.436;2022-09-25T15:49:05;15.80;99.90
29571;DHT22;16814;52.118;11.436;2022-09-25T15:51:32;15.70;99.90
29571;DHT22;16814;52.118;11.436;2022-09-25T15:56:57;15.40;99.90
29571;DHT22;16814;52.118;11.436;2022-09-25T15:59:30;15.50;99.90
29571;DHT22;16814;52.118;11.436;2022-09-25T16:01:59;15.50;99.90
29571;DHT22;16814;52.118;11.436;2022-09-25T16:04:51;15.50;99.90
29571;DHT22;16814;52.118;11.436;2022-09-25T16:07:23;15.60;99.90
29571;DHT22;16814;52.118;11.436;2022-09-25T16:10:25;15.50;99.90
29571;DHT22;16814;52.118;11.436;2022-09-25T16:12:44;15.40;99.90
29571;DHT22;16814;52.118;11.436;2022-09-25T16:15:39;15.50;99.90
29571;DHT22;16814;52.118;11.436;2022-09-25T16:20:43;15.30;99.90
29571;DHT22;16814;52.118;11.436;2022-09-25T16:23:35;15.30;99.90
29571;DHT22;16814;52.118;11.436;2022-09-25T16:26:03;15.20;99.90
29571;DHT22;16814;52.118;11.436;2022-09-25T16:28:32;15.10;99.90
29571;DHT22;16814;52.118;11.436;2022-09-25T16:31:06;15.00;99.90
29571;DHT22;16814;52.118;11.436;2022-09-25T16:33:38;15.00;99.90
29571;DHT22;16814;52.118;11.436;2022-09-25T16:36:10;14.90;99.90
29571;DHT22;16814;52.118;11.436;2022-09-25T16:38:41;14.90;99.90
29571;DHT22;16814;52.118;11.436;2022-09-25T16:41:20;14.80;99.90
29571;DHT22;16814;52.118;11.436;2022-09-25T16:46:38;14.60;99.90
29571;DHT22;16814;52.118;11.436;2022-09-25T16:49:08;14.60;99.90
29571;DHT22;16814;52.118;11.436;2022-09-25T16:51:35;14.60;99.90
29571;DHT22;16814;52.118;11.436;2022-09-25T16:54:01;14.60;99.90
29571;DHT22;16814;52.118;11.436;2022-09-25T16:56:30;14.60;99.90
29571;DHT22;16814;52.118;11.436;2022-09-25T16:58:57;14.50;99.90
29571;DHT22;16814;52.118;11.436;2022-09-25T17:01:24;14.40;99.90
29571;DHT22;16814;52.118;11.436;2022-09-25T17:03:50;14.40;99.90
29571;DHT22;16814;52.118;11.436;2022-09-25T17:06:25;14.30;99.90
29571;DHT22;16814;52.118;11.436;2022-09-25T17:08:51;14.20;99.90
29571;DHT22;16814;52.118;11.436;2022-09-25T17:11:19;14.30;99.90
29571;DHT22;16814;52.118;11.436;2022-09-25T17:13:46;14.30;99.90
29571;DHT22;16814;52.118;11.436;2022-09-25T17:16:12;14.20;99.90
29571;DHT22;16814;52.118;11.436;2022-09-25T17:18:38;14.20;99.90
29571;DHT22;16814;52.118;11.436;2022-09-25T17:21:10;14.20;99.90
29571;DHT22;16814;52.118;11.436;2022-09-25T17:23:37;14.20;99.90
29571;DHT22;16814;52.118;11.436;2022-09-25T17:26:09;14.20;99.90
29571;DHT22;16814;52.118;11.436;2022-09-25T17:28:37;14.20;99.90
29571;DHT22;16814;52.118;11.436;2022-09-25T17:31:03;14.20;99.90
29571;DHT22;16814;52.118;11.436;2022-09-25T17:33:29;14.10;99.90
29571;DHT22;16814;52.118;11.436;2022-09-25T17:35:59;14.00;99.90
29571;DHT22;16814;52.118;11.436;2022-09-25T17:38:25;14.00;99.90
29571;DHT22;16814;52.118;11.436;2022-09-25T17:40:53;14.00;99.90
29571;DHT22;16814;52.118;11.436;2022-09-25T17:43:22;14.00;99.90
29571;DHT22;16814;52.118;11.436;2022-09-25T17:45:50;13.80;99.90
29571;DHT22;16814;52.118;11.436;2022-09-25T17:48:17;13.80;99.90
29571;DHT22;16814;52.118;11.436;2022-09-25T17:50:47;13.80;99.90